Orbital elements of COSMOS 970 DEB
| Launched | 20 December 1977 |
| Flight ended | – |
| Launch site | Tyuratam Missile and Space Center, Kazakhstan (Also known as Baikonur Cosmodrome) |
| Owner | Commonwealth of Independent States (former USSR) |
| NORAD ID | 10562 |
| Date fetched |
Epoch osculation |
Inc. [°] |
Ecc. | RA asc node [hr] |
Arg Peri. [°] |
Mean anom [°] |
Mean motion [rev/day] |
Abs. mag |
| Date fetched |
Epoch osculation |
Inc. [°] |
Ecc. | RA asc node [hr] |
Arg Peri. [°] |
Mean anom [°] |
Mean motion [rev/day] |
Abs. mag |
| 2026 May 03 17:57 | 2026 Apr 30 05:01:02 | 65.8720 | 0.00829 | 1.3296 | 108.0232 | 53.9741 | 13.36779 | – |
| 2026 May 02 17:57 | 2026 Apr 30 05:01:02 | 65.8720 | 0.00829 | 1.3296 | 108.0232 | 53.9741 | 13.36779 | – |
| 2026 May 01 17:56 | 2026 Apr 30 05:01:02 | 65.8720 | 0.00829 | 1.3296 | 108.0232 | 53.9741 | 13.36779 | – |
| 2026 Apr 30 17:56 | 2026 Apr 30 05:01:02 | 65.8720 | 0.00829 | 1.3296 | 108.0232 | 53.9741 | 13.36779 | – |
| 2026 Apr 29 17:57 | 2026 Apr 24 04:56:30 | 65.8718 | 0.00828 | 2.2541 | 111.1377 | 53.9741 | 13.36779 | – |
| 2026 Apr 28 17:56 | 2026 Apr 24 04:56:30 | 65.8718 | 0.00828 | 2.2541 | 111.1377 | 53.9741 | 13.36779 | – |
| 2026 Apr 27 17:58 | 2026 Apr 24 04:56:30 | 65.8718 | 0.00828 | 2.2541 | 111.1377 | 53.9741 | 13.36779 | – |
| 2026 Apr 26 17:58 | 2026 Apr 24 04:56:30 | 65.8718 | 0.00828 | 2.2541 | 111.1377 | 53.9741 | 13.36779 | – |
| 2026 Apr 25 17:58 | 2026 Apr 24 04:56:30 | 65.8718 | 0.00828 | 2.2541 | 111.1377 | 53.9741 | 13.36779 | – |
| 2026 Apr 24 17:59 | 2026 Apr 24 04:56:30 | 65.8718 | 0.00828 | 2.2541 | 111.1377 | 53.9741 | 13.36779 | – |
| 2026 Apr 23 17:57 | 2026 Apr 19 06:49:58 | 65.8711 | 0.00827 | 3.0120 | 113.7142 | 53.9741 | 13.36779 | – |
| 2026 Apr 22 17:57 | 2026 Apr 19 06:49:58 | 65.8711 | 0.00827 | 3.0120 | 113.7142 | 53.9741 | 13.36779 | – |
| 2026 Apr 21 17:57 | 2026 Apr 19 06:49:58 | 65.8711 | 0.00827 | 3.0120 | 113.7142 | 53.9741 | 13.36779 | – |
| 2026 Apr 20 17:57 | 2026 Apr 19 06:49:58 | 65.8711 | 0.00827 | 3.0120 | 113.7142 | 53.9741 | 13.36779 | – |
| 2026 Apr 19 17:58 | 2026 Apr 19 06:49:58 | 65.8711 | 0.00827 | 3.0120 | 113.7142 | 53.9741 | 13.36779 | – |
| 2026 Apr 18 17:56 | 2026 Apr 13 07:09:29 | 65.8701 | 0.00828 | 3.9340 | 116.8678 | 53.9741 | 13.36779 | – |
| 2026 Apr 16 17:57 | 2026 Apr 13 07:09:29 | 65.8701 | 0.00828 | 3.9340 | 116.8678 | 53.9741 | 13.36779 | – |
| 2026 Apr 14 17:57 | 2026 Apr 13 07:09:29 | 65.8701 | 0.00828 | 3.9340 | 116.8678 | 53.9741 | 13.36779 | – |
| 2026 Apr 13 17:57 | 2026 Apr 13 07:09:29 | 65.8701 | 0.00828 | 3.9340 | 116.8678 | 53.9741 | 13.36779 | – |
| 2026 Apr 12 17:57 | 2026 Apr 08 08:43:30 | 65.8692 | 0.00828 | 4.6940 | 119.4871 | 53.9741 | 13.36779 | – |
| 2026 Apr 11 17:57 | 2026 Apr 08 08:43:30 | 65.8692 | 0.00828 | 4.6940 | 119.4871 | 53.9741 | 13.36779 | – |
| 2026 Apr 10 17:58 | 2026 Apr 08 08:43:30 | 65.8692 | 0.00828 | 4.6940 | 119.4871 | 53.9741 | 13.36779 | – |
| 2026 Apr 09 18:01 | 2026 Apr 08 08:43:30 | 65.8692 | 0.00828 | 4.6940 | 119.4871 | 53.9741 | 13.36779 | – |
| 2026 Apr 08 17:57 | 2026 Apr 08 08:43:30 | 65.8692 | 0.00828 | 4.6940 | 119.4871 | 53.9741 | 13.36779 | – |
| 2026 Apr 07 17:57 | 2026 Apr 02 06:32:15 | 65.8682 | 0.00830 | 5.6322 | 122.6736 | 53.9741 | 13.36779 | – |
| 2026 Apr 06 17:57 | 2026 Apr 02 06:32:15 | 65.8682 | 0.00830 | 5.6322 | 122.6736 | 53.9741 | 13.36779 | – |